sensor_id;sensor_type;location;lat;lon;timestamp;pressure;altitude;pressure_sealevel;temperature;humidity
1401;BME280;46518;48.842;8.926;2023-02-02T00:01:25;97751.13;;;4.95;82.81
1401;BME280;46518;48.842;8.926;2023-02-02T00:03:53;97736.88;;;4.98;83.14
1401;BME280;46518;48.842;8.926;2023-02-02T00:06:24;97729.06;;;4.98;82.92
1401;BME280;46518;48.842;8.926;2023-02-02T00:08:52;97727.06;;;5.00;82.63
1401;BME280;46518;48.842;8.926;2023-02-02T00:11:24;97712.78;;;4.96;83.12
1401;BME280;46518;48.842;8.926;2023-02-02T00:13:53;97719.19;;;4.93;83.35
1401;BME280;46518;48.842;8.926;2023-02-02T00:19:20;97729.44;;;4.95;83.53
1401;BME280;46518;48.842;8.926;2023-02-02T00:21:49;97735.44;;;4.89;84.42
1401;BME280;46518;48.842;8.926;2023-02-02T00:24:18;97720.78;;;4.88;84.59
1401;BME280;46518;48.842;8.926;2023-02-02T00:26:49;97735.06;;;4.92;85.51
1401;BME280;46518;48.842;8.926;2023-02-02T00:29:21;97732.63;;;4.90;85.27
1401;BME280;46518;48.842;8.926;2023-02-02T00:31:50;97735.19;;;4.84;85.50
1401;BME280;46518;48.842;8.926;2023-02-02T00:34:19;97763.13;;;4.90;85.93
1401;BME280;46518;48.842;8.926;2023-02-02T00:36:48;97740.84;;;4.87;85.47
1401;BME280;46518;48.842;8.926;2023-02-02T00:39:19;97730.38;;;4.81;86.30
1401;BME280;46518;48.842;8.926;2023-02-02T00:41:49;97747.84;;;4.80;86.36
1401;BME280;46518;48.842;8.926;2023-02-02T00:44:18;97736.22;;;4.83;85.77
1401;BME280;46518;48.842;8.926;2023-02-02T00:47:03;97743.03;;;4.84;86.29
1401;BME280;46518;48.842;8.926;2023-02-02T00:49:32;97729.59;;;4.80;86.68
1401;BME280;46518;48.842;8.926;2023-02-02T00:52:00;97736.22;;;4.83;86.65
1401;BME280;46518;48.842;8.926;2023-02-02T00:54:28;97718.56;;;4.85;86.97
1401;BME280;46518;48.842;8.926;2023-02-02T00:56:58;97722.38;;;4.82;87.36
1401;BME280;46518;48.842;8.926;2023-02-02T00:59:26;97724.78;;;4.84;87.57
1401;BME280;46518;48.842;8.926;2023-02-02T01:01:54;97717.97;;;4.83;87.70
1401;BME280;46518;48.842;8.926;2023-02-02T01:04:23;97717.97;;;4.83;88.54
1401;BME280;46518;48.842;8.926;2023-02-02T01:06:51;97713.53;;;4.83;89.45
1401;BME280;46518;48.842;8.926;2023-02-02T01:09:19;97731.19;;;4.81;89.34
1401;BME280;46518;48.842;8.926;2023-02-02T01:11:47;97734.91;;;4.65;90.91
1401;BME280;46518;48.842;8.926;2023-02-02T01:14:17;97730.09;;;4.62;91.82
1401;BME280;46518;48.842;8.926;2023-02-02T01:16:45;97735.44;;;4.54;92.96
1401;BME280;46518;48.842;8.926;2023-02-02T01:19:14;97734.06;;;4.58;93.53
1401;BME280;46518;48.842;8.926;2023-02-02T01:21:43;97733.84;;;4.53;94.21
1401;BME280;46518;48.842;8.926;2023-02-02T01:24:11;97729.00;;;4.50;95.10
1401;BME280;46518;48.842;8.926;2023-02-02T01:26:40;97726.19;;;4.51;95.89
1401;BME280;46518;48.842;8.926;2023-02-02T01:29:08;97723.59;;;4.51;95.91
1401;BME280;46518;48.842;8.926;2023-02-02T01:31:37;97730.81;;;4.49;95.43
1401;BME280;46518;48.842;8.926;2023-02-02T01:34:06;97726.78;;;4.47;95.85
1401;BME280;46518;48.842;8.926;2023-02-02T01:36:35;97740.66;;;4.54;95.64
1401;BME280;46518;48.842;8.926;2023-02-02T01:39:03;97722.38;;;4.47;95.33
1401;BME280;46518;48.842;8.926;2023-02-02T01:41:31;97731.41;;;4.51;95.36
1401;BME280;46518;48.842;8.926;2023-02-02T01:44:01;97724.22;;;4.53;95.07
1401;BME280;46518;48.842;8.926;2023-02-02T01:46:31;97724.66;;;4.57;94.80
1401;BME280;46518;48.842;8.926;2023-02-02T01:49:05;97728.06;;;4.58;94.35
1401;BME280;46518;48.842;8.926;2023-02-02T01:51:39;97715.88;;;4.65;93.95
1401;BME280;46518;48.842;8.926;2023-02-02T01:54:12;97707.41;;;4.63;94.01
1401;BME280;46518;48.842;8.926;2023-02-02T01:56:45;97697.75;;;4.57;93.77
1401;BME280;46518;48.842;8.926;2023-02-02T01:59:16;97701.19;;;4.64;93.41
1401;BME280;46518;48.842;8.926;2023-02-02T02:01:46;97699.88;;;4.74;93.07
1401;BME280;46518;48.842;8.926;2023-02-02T02:04:17;97708.44;;;4.68;93.47
1401;BME280;46518;48.842;8.926;2023-02-02T02:06:46;97695.22;;;4.70;92.97
1401;BME280;46518;48.842;8.926;2023-02-02T02:09:16;97687.84;;;4.80;93.42
1401;BME280;46518;48.842;8.926;2023-02-02T02:11:45;97704.66;;;4.71;93.08
1401;BME280;46518;48.842;8.926;2023-02-02T02:14:13;97698.47;;;4.72;93.40
1401;BME280;46518;48.842;8.926;2023-02-02T02:17:14;97695.41;;;4.68;93.99
1401;BME280;46518;48.842;8.926;2023-02-02T02:26:58;97713.44;;;4.63;94.85
1401;BME280;46518;48.842;8.926;2023-02-02T02:29:46;97694.56;;;4.54;95.37
1401;BME280;46518;48.842;8.926;2023-02-02T02:32:28;97709.19;;;4.56;95.41
1401;BME280;46518;48.842;8.926;2023-02-02T02:35:03;97706.97;;;4.52;95.92
1401;BME280;46518;48.842;8.926;2023-02-02T02:37:38;97691.75;;;4.56;95.63
1401;BME280;46518;48.842;8.926;2023-02-02T02:40:14;97701.19;;;4.57;95.47
1401;BME280;46518;48.842;8.926;2023-02-02T02:42:49;97699.56;;;4.56;95.64
1401;BME280;46518;48.842;8.926;2023-02-02T02:45:20;97694.72;;;4.53;96.20
1401;BME280;46518;48.842;8.926;2023-02-02T02:47:52;97692.53;;;4.57;95.98
1401;BME280;46518;48.842;8.926;2023-02-02T02:50:22;97698.19;;;4.60;95.66
1401;BME280;46518;48.842;8.926;2023-02-02T02:52:55;97706.00;;;4.60;95.30
1401;BME280;46518;48.842;8.926;2023-02-02T02:55:32;97698.94;;;4.54;95.70
1401;BME280;46518;48.842;8.926;2023-02-02T02:58:09;97710.03;;;4.63;95.38
1401;BME280;46518;48.842;8.926;2023-02-02T03:00:53;97718.66;;;4.63;95.10
1401;BME280;46518;48.842;8.926;2023-02-02T03:03:43;97710.88;;;4.70;94.81
1401;BME280;46518;48.842;8.926;2023-02-02T03:06:18;97713.47;;;4.70;94.03
1401;BME280;46518;48.842;8.926;2023-02-02T03:08:52;97722.09;;;4.70;94.07
1401;BME280;46518;48.842;8.926;2023-02-02T03:11:22;97723.91;;;4.70;93.91
1401;BME280;46518;48.842;8.926;2023-02-02T03:13:50;97741.59;;;4.81;94.16
1401;BME280;46518;48.842;8.926;2023-02-02T03:16:18;97743.59;;;4.79;93.35
1401;BME280;46518;48.842;8.926;2023-02-02T03:18:48;97732.38;;;4.79;93.18
1401;BME280;46518;48.842;8.926;2023-02-02T03:21:16;97742.81;;;4.79;93.67
1401;BME280;46518;48.842;8.926;2023-02-02T03:23:44;97726.97;;;4.80;93.70
1401;BME280;46518;48.842;8.926;2023-02-02T03:26:12;97741.59;;;4.74;94.11
1401;BME280;46518;48.842;8.926;2023-02-02T03:28:41;97726.13;;;4.73;94.68
1401;BME280;46518;48.842;8.926;2023-02-02T03:31:09;97715.28;;;4.69;94.99
1401;BME280;46518;48.842;8.926;2023-02-02T03:33:37;97699.03;;;4.74;94.53
1401;BME280;46518;48.842;8.926;2023-02-02T03:36:08;97727.72;;;4.74;94.00
1401;BME280;46518;48.842;8.926;2023-02-02T03:38:36;97743.81;;;4.78;94.37
1401;BME280;46518;48.842;8.926;2023-02-02T03:41:04;97741.81;;;4.80;94.68
1401;BME280;46518;48.842;8.926;2023-02-02T03:43:32;97740.81;;;4.81;93.89
1401;BME280;46518;48.842;8.926;2023-02-02T03:46:02;97738.19;;;4.81;94.30
1401;BME280;46518;48.842;8.926;2023-02-02T03:48:31;97733.44;;;4.91;93.61
1401;BME280;46518;48.842;8.926;2023-02-02T03:51:04;97748.06;;;4.85;93.83
1401;BME280;46518;48.842;8.926;2023-02-02T03:53:34;97762.13;;;4.91;93.25
1401;BME280;46518;48.842;8.926;2023-02-02T03:56:03;97755.94;;;4.92;93.37
1401;BME280;46518;48.842;8.926;2023-02-02T03:58:31;97752.09;;;4.88;93.60
1401;BME280;46518;48.842;8.926;2023-02-02T04:01:02;97754.50;;;4.89;93.84
1401;BME280;46518;48.842;8.926;2023-02-02T04:03:30;97758.16;;;4.95;93.32
1401;BME280;46518;48.842;8.926;2023-02-02T04:05:58;97754.69;;;4.88;93.61
1401;BME280;46518;48.842;8.926;2023-02-02T04:08:27;97754.31;;;4.91;93.79
1401;BME280;46518;48.842;8.926;2023-02-02T04:10:57;97751.06;;;4.89;93.74
1401;BME280;46518;48.842;8.926;2023-02-02T04:13:25;97759.28;;;4.86;94.28
1401;BME280;46518;48.842;8.926;2023-02-02T04:15:57;97747.25;;;4.85;94.17
1401;BME280;46518;48.842;8.926;2023-02-02T04:18:26;97743.47;;;4.87;94.43
1401;BME280;46518;48.842;8.926;2023-02-02T04:20:56;97741.03;;;4.86;94.57
1401;BME280;46518;48.842;8.926;2023-02-02T04:23:26;97744.03;;;4.83;94.49
1401;BME280;46518;48.842;8.926;2023-02-02T04:25:54;97769.72;;;4.86;94.57
1401;BME280;46518;48.842;8.926;2023-02-02T04:28:25;97762.28;;;4.83;94.41
1401;BME280;46518;48.842;8.926;2023-02-02T04:30:54;97750.06;;;4.83;94.27
1401;BME280;46518;48.842;8.926;2023-02-02T04:33:24;97766.50;;;4.84;94.75
1401;BME280;46518;48.842;8.926;2023-02-02T04:35:52;97759.72;;;4.89;93.75
1401;BME280;46518;48.842;8.926;2023-02-02T04:38:21;97758.50;;;4.85;94.35
1401;BME280;46518;48.842;8.926;2023-02-02T04:40:49;97758.09;;;4.88;94.03
1401;BME280;46518;48.842;8.926;2023-02-02T04:43:17;97758.31;;;4.87;93.86
1401;BME280;46518;48.842;8.926;2023-02-02T04:45:47;97763.28;;;4.82;94.49
1401;BME280;46518;48.842;8.926;2023-02-02T04:48:16;97758.31;;;4.87;94.37
1401;BME280;46518;48.842;8.926;2023-02-02T04:50:44;97786.59;;;4.90;94.67
1401;BME280;46518;48.842;8.926;2023-02-02T04:53:12;97776.56;;;4.87;94.58
1401;BME280;46518;48.842;8.926;2023-02-02T04:55:40;97774.53;;;4.82;94.43
1401;BME280;46518;48.842;8.926;2023-02-02T04:58:08;97778.00;;;4.89;94.23
1401;BME280;46518;48.842;8.926;2023-02-02T05:00:37;97790.03;;;4.90;94.37
1401;BME280;46518;48.842;8.926;2023-02-02T05:03:06;97790.81;;;4.91;94.13
1401;BME280;46518;48.842;8.926;2023-02-02T05:05:34;97798.88;;;4.96;93.96
1401;BME280;46518;48.842;8.926;2023-02-02T05:08:03;97810.94;;;4.97;93.93
1401;BME280;46518;48.842;8.926;2023-02-02T05:10:32;97790.88;;;4.97;93.57
1401;BME280;46518;48.842;8.926;2023-02-02T05:13:00;97799.31;;;5.00;94.02
1401;BME280;46518;48.842;8.926;2023-02-02T05:15:29;97790.28;;;5.02;93.44
1401;BME280;46518;48.842;8.926;2023-02-02T05:17:57;97815.75;;;5.00;93.95
1401;BME280;46518;48.842;8.926;2023-02-02T05:20:26;97793.69;;;5.03;93.88
1401;BME280;46518;48.842;8.926;2023-02-02T05:22:55;97805.50;;;4.98;93.62
1401;BME280;46518;48.842;8.926;2023-02-02T05:25:23;97814.75;;;5.01;93.32
1401;BME280;46518;48.842;8.926;2023-02-02T05:27:51;97817.59;;;5.06;93.33
1401;BME280;46518;48.842;8.926;2023-02-02T05:30:20;97807.16;;;5.06;92.61
1401;BME280;46518;48.842;8.926;2023-02-02T05:32:48;97813.78;;;5.02;93.31
1401;BME280;46518;48.842;8.926;2023-02-02T05:35:16;97819.84;;;5.09;92.23
1401;BME280;46518;48.842;8.926;2023-02-02T05:37:46;97825.22;;;5.08;92.46
1401;BME280;46518;48.842;8.926;2023-02-02T05:40:14;97818.03;;;5.16;92.14
1401;BME280;46518;48.842;8.926;2023-02-02T05:42:46;97828.88;;;5.13;92.37
1401;BME280;46518;48.842;8.926;2023-02-02T05:45:14;97817.63;;;5.13;92.09
1401;BME280;46518;48.842;8.926;2023-02-02T05:47:43;97833.91;;;5.15;91.90
1401;BME280;46518;48.842;8.926;2023-02-02T05:50:11;97855.16;;;5.12;92.29
1401;BME280;46518;48.842;8.926;2023-02-02T05:52:40;97837.31;;;5.15;92.78
1401;BME280;46518;48.842;8.926;2023-02-02T05:55:11;97833.50;;;5.18;92.63
1401;BME280;46518;48.842;8.926;2023-02-02T05:57:39;97837.72;;;5.12;93.12
1401;BME280;46518;48.842;8.926;2023-02-02T06:00:09;97829.66;;;5.14;92.76
1401;BME280;46518;48.842;8.926;2023-02-02T06:02:38;97834.88;;;5.14;92.89
1401;BME280;46518;48.842;8.926;2023-02-02T06:05:06;97832.50;;;5.12;92.81
1401;BME280;46518;48.842;8.926;2023-02-02T06:07:35;97840.72;;;5.09;92.40
1401;BME280;46518;48.842;8.926;2023-02-02T06:10:03;97836.75;;;5.20;92.55
1401;BME280;46518;48.842;8.926;2023-02-02T06:12:33;97838.31;;;5.14;92.04
1401;BME280;46518;48.842;8.926;2023-02-02T06:15:02;97821.81;;;5.07;92.59
1401;BME280;46518;48.842;8.926;2023-02-02T06:17:30;97838.69;;;5.11;92.68
1401;BME280;46518;48.842;8.926;2023-02-02T06:19:58;97840.09;;;5.14;92.27
1401;BME280;46518;48.842;8.926;2023-02-02T06:22:26;97836.91;;;5.12;93.31
1401;BME280;46518;48.842;8.926;2023-02-02T06:24:56;97834.09;;;5.13;93.05
1401;BME280;46518;48.842;8.926;2023-02-02T06:27:24;97826.81;;;5.02;92.50
1401;BME280;46518;48.842;8.926;2023-02-02T06:29:54;97826.25;;;5.13;92.49
1401;BME280;46518;48.842;8.926;2023-02-02T06:32:22;97846.72;;;5.10;92.82
1401;BME280;46518;48.842;8.926;2023-02-02T06:34:50;97855.34;;;5.10;93.09
1401;BME280;46518;48.842;8.926;2023-02-02T06:37:18;97848.47;;;5.03;93.25
1401;BME280;46518;48.842;8.926;2023-02-02T06:39:46;97849.66;;;5.00;93.17
1401;BME280;46518;48.842;8.926;2023-02-02T06:42:14;97849.91;;;5.05;93.05
1401;BME280;46518;48.842;8.926;2023-02-02T06:44:47;97861.19;;;5.12;93.11
1401;BME280;46518;48.842;8.926;2023-02-02T06:47:17;97854.56;;;5.10;93.22
1401;BME280;46518;48.842;8.926;2023-02-02T06:49:46;97869.59;;;5.08;93.71
1401;BME280;46518;48.842;8.926;2023-02-02T06:52:14;97854.09;;;5.06;94.00
1401;BME280;46518;48.842;8.926;2023-02-02T06:54:42;97854.09;;;5.06;93.22
1401;BME280;46518;48.842;8.926;2023-02-02T06:57:10;97864.22;;;5.16;93.05
1401;BME280;46518;48.842;8.926;2023-02-02T06:59:38;97868.81;;;5.14;92.86
1401;BME280;46518;48.842;8.926;2023-02-02T07:02:09;97862.28;;;4.96;93.77
1401;BME280;46518;48.842;8.926;2023-02-02T07:04:39;97859.56;;;5.11;93.46
1401;BME280;46518;48.842;8.926;2023-02-02T07:07:07;97864.28;;;4.94;93.49
1401;BME280;46518;48.842;8.926;2023-02-02T07:09:35;97860.69;;;4.95;93.97
1401;BME280;46518;48.842;8.926;2023-02-02T07:12:03;97867.50;;;4.96;93.98
1401;BME280;46518;48.842;8.926;2023-02-02T07:14:32;97872.44;;;5.13;93.57
1401;BME280;46518;48.842;8.926;2023-02-02T07:17:00;97865.16;;;5.08;93.33
1401;BME280;46518;48.842;8.926;2023-02-02T07:19:28;97847.06;;;5.00;93.16
1401;BME280;46518;48.842;8.926;2023-02-02T07:21:58;97849.66;;;5.00;93.56
1401;BME280;46518;48.842;8.926;2023-02-02T07:24:26;97856.69;;;5.00;92.80
1401;BME280;46518;48.842;8.926;2023-02-02T07:26:54;97860.97;;;5.07;92.69
1401;BME280;46518;48.842;8.926;2023-02-02T07:29:24;97879.63;;;5.11;92.82
1401;BME280;46518;48.842;8.926;2023-02-02T07:31:52;97894.66;;;5.09;93.06
1401;BME280;46518;48.842;8.926;2023-02-02T07:34:20;97886.03;;;5.08;92.51
1401;BME280;46518;48.842;8.926;2023-02-02T07:36:48;97894.53;;;5.17;92.30
1401;BME280;46518;48.842;8.926;2023-02-02T07:39:18;97873.16;;;5.00;92.07
1401;BME280;46518;48.842;8.926;2023-02-02T07:41:46;97883.28;;;5.16;91.80
1401;BME280;46518;48.842;8.926;2023-02-02T07:44:27;97883.72;;;5.20;92.00
1401;BME280;46518;48.842;8.926;2023-02-02T07:46:56;97878.66;;;5.12;92.28
1401;BME280;46518;48.842;8.926;2023-02-02T07:49:24;97862.06;;;5.26;92.02
1401;BME280;46518;48.842;8.926;2023-02-02T07:51:52;97869.88;;;5.26;90.73
1401;BME280;46518;48.842;8.926;2023-02-02T07:54:22;97870.78;;;5.40;90.52
1401;BME280;46518;48.842;8.926;2023-02-02T07:56:50;97881.97;;;5.34;90.44
1401;BME280;46518;48.842;8.926;2023-02-02T07:59:18;97873.78;;;5.37;89.99
1401;BME280;46518;48.842;8.926;2023-02-02T08:01:46;97875.94;;;5.33;89.71
1401;BME280;46518;48.842;8.926;2023-02-02T08:04:15;97866.28;;;5.27;89.07
1401;BME280;46518;48.842;8.926;2023-02-02T08:06:44;97878.41;;;5.41;89.24
1401;BME280;46518;48.842;8.926;2023-02-02T08:09:12;97868.75;;;5.35;88.86
1401;BME280;46518;48.842;8.926;2023-02-02T08:11:42;97866.53;;;5.39;88.97
1401;BME280;46518;48.842;8.926;2023-02-02T08:14:11;97882.91;;;5.54;89.17
1401;BME280;46518;48.842;8.926;2023-02-02T08:16:39;97878.44;;;5.48;88.76
1401;BME280;46518;48.842;8.926;2023-02-02T08:19:09;97876.03;;;5.47;89.16
1401;BME280;46518;48.842;8.926;2023-02-02T08:21:37;97884.91;;;5.52;88.65
1401;BME280;46518;48.842;8.926;2023-02-02T08:24:05;97884.50;;;5.55;88.69
1401;BME280;46518;48.842;8.926;2023-02-02T08:26:33;97890.53;;;5.56;88.65
1401;BME280;46518;48.842;8.926;2023-02-02T08:29:04;97884.91;;;5.59;88.90
1401;BME280;46518;48.842;8.926;2023-02-02T08:31:35;97900.78;;;5.57;88.79
1401;BME280;46518;48.842;8.926;2023-02-02T08:34:04;97924.47;;;5.56;89.42
1401;BME280;46518;48.842;8.926;2023-02-02T08:36:32;97922.28;;;5.59;88.40
1401;BME280;46518;48.842;8.926;2023-02-02T08:39:03;97919.69;;;5.59;88.61
1401;BME280;46518;48.842;8.926;2023-02-02T08:41:32;97922.47;;;5.58;89.55
1401;BME280;46518;48.842;8.926;2023-02-02T08:44:00;97934.53;;;5.59;89.12
1401;BME280;46518;48.842;8.926;2023-02-02T08:46:30;97959.03;;;5.58;89.11
1401;BME280;46518;48.842;8.926;2023-02-02T08:48:58;97948.25;;;5.68;89.40
1401;BME280;46518;48.842;8.926;2023-02-02T08:51:26;97945.41;;;5.62;89.18
1401;BME280;46518;48.842;8.926;2023-02-02T08:53:54;97952.91;;;5.44;90.85
1401;BME280;46518;48.842;8.926;2023-02-02T08:56:22;97960.38;;;5.47;91.29
1401;BME280;46518;48.842;8.926;2023-02-02T08:58:53;97972.81;;;5.45;91.45
1401;BME280;46518;48.842;8.926;2023-02-02T09:01:23;97974.25;;;5.48;91.68
1401;BME280;46518;48.842;8.926;2023-02-02T09:03:54;97971.78;;;5.39;92.63
1401;BME280;46518;48.842;8.926;2023-02-02T09:06:29;97960.91;;;5.36;92.55
1401;BME280;46518;48.842;8.926;2023-02-02T09:08:58;97966.31;;;5.34;92.86
1401;BME280;46518;48.842;8.926;2023-02-02T09:11:26;97960.91;;;5.36;92.60
1401;BME280;46518;48.842;8.926;2023-02-02T09:13:56;97953.47;;;5.33;93.24
1401;BME280;46518;48.842;8.926;2023-02-02T09:16:25;97946.25;;;5.35;93.20
1401;BME280;46518;48.842;8.926;2023-02-02T09:18:55;97971.19;;;5.44;93.43
1401;BME280;46518;48.842;8.926;2023-02-02T09:21:24;97968.56;;;5.44;93.38
1401;BME280;46518;48.842;8.926;2023-02-02T09:23:53;97976.22;;;5.46;92.81
1401;BME280;46518;48.842;8.926;2023-02-02T09:26:22;97973.00;;;5.44;92.66
1401;BME280;46518;48.842;8.926;2023-02-02T09:28:53;97973.00;;;5.44;92.74
1401;BME280;46518;48.842;8.926;2023-02-02T09:31:22;97986.44;;;5.40;92.90
1401;BME280;46518;48.842;8.926;2023-02-02T09:33:51;97980.41;;;5.40;93.51
1401;BME280;46518;48.842;8.926;2023-02-02T09:36:22;97976.84;;;5.48;93.68
1401;BME280;46518;48.842;8.926;2023-02-02T09:38:52;97989.47;;;5.44;93.35
1401;BME280;46518;48.842;8.926;2023-02-02T09:42:08;97984.50;;;5.49;93.47
1401;BME280;46518;48.842;8.926;2023-02-02T09:44:58;97988.63;;;5.37;94.25
1401;BME280;46518;48.842;8.926;2023-02-02T09:47:39;98001.69;;;5.37;94.75
1401;BME280;46518;48.842;8.926;2023-02-02T09:50:15;97973.72;;;5.31;94.11
1401;BME280;46518;48.842;8.926;2023-02-02T09:52:52;97978.19;;;5.37;93.85
1401;BME280;46518;48.842;8.926;2023-02-02T09:55:27;97994.66;;;5.37;94.27
1401;BME280;46518;48.842;8.926;2023-02-02T09:58:00;97994.50;;;5.46;93.67
1401;BME280;46518;48.842;8.926;2023-02-02T10:00:33;98001.78;;;5.50;92.82
1401;BME280;46518;48.842;8.926;2023-02-02T10:03:11;97998.91;;;5.45;92.91
1401;BME280;46518;48.842;8.926;2023-02-02T10:05:47;98007.72;;;5.44;93.18
1401;BME280;46518;48.842;8.926;2023-02-02T10:08:23;98011.53;;;5.41;93.39
1401;BME280;46518;48.842;8.926;2023-02-02T10:11:07;98010.16;;;5.46;93.30
1401;BME280;46518;48.842;8.926;2023-02-02T10:13:41;97998.53;;;5.48;92.38
1401;BME280;46518;48.842;8.926;2023-02-02T10:16:14;98005.63;;;5.54;91.98
1401;BME280;46518;48.842;8.926;2023-02-02T10:18:47;97999.63;;;5.60;91.66
1401;BME280;46518;48.842;8.926;2023-02-02T10:21:25;98013.41;;;5.48;91.48
1401;BME280;46518;48.842;8.926;2023-02-02T10:23:57;98006.94;;;5.44;92.03
1401;BME280;46518;48.842;8.926;2023-02-02T10:26:34;97998.34;;;5.50;92.32
1401;BME280;46518;48.842;8.926;2023-02-02T10:29:15;98011.19;;;5.45;91.95
1401;BME280;46518;48.842;8.926;2023-02-02T10:31:52;98004.16;;;5.45;91.84
1401;BME280;46518;48.842;8.926;2023-02-02T10:34:27;98005.50;;;5.41;91.79
1401;BME280;46518;48.842;8.926;2023-02-02T10:37:07;97980.41;;;5.40;92.49
1401;BME280;46518;48.842;8.926;2023-02-02T10:39:51;97993.53;;;5.47;91.04
1401;BME280;46518;48.842;8.926;2023-02-02T10:42:38;98022.50;;;5.58;90.86
1401;BME280;46518;48.842;8.926;2023-02-02T10:45:14;97999.50;;;5.40;91.20
1401;BME280;46518;48.842;8.926;2023-02-02T10:47:44;98007.38;;;5.47;90.99
1401;BME280;46518;48.842;8.926;2023-02-02T10:50:15;97997.91;;;5.46;91.87
1401;BME280;46518;48.842;8.926;2023-02-02T10:52:46;98014.16;;;5.70;91.22
1401;BME280;46518;48.842;8.926;2023-02-02T10:55:24;98020.91;;;5.57;91.50
1401;BME280;46518;48.842;8.926;2023-02-02T10:58:03;98039.66;;;5.68;91.49
1401;BME280;46518;48.842;8.926;2023-02-02T11:00:39;98008.81;;;5.50;91.16
1401;BME280;46518;48.842;8.926;2023-02-02T11:03:13;98043.88;;;5.69;90.82
1401;BME280;46518;48.842;8.926;2023-02-02T11:05:42;98027.63;;;5.73;90.62
1401;BME280;46518;48.842;8.926;2023-02-02T11:08:31;98028.44;;;5.74;90.66
1401;BME280;46518;48.842;8.926;2023-02-02T11:11:10;98026.44;;;5.76;89.83
1401;BME280;46518;48.842;8.926;2023-02-02T11:13:42;98033.28;;;5.77;89.91
1401;BME280;46518;48.842;8.926;2023-02-02T11:16:21;98025.69;;;5.82;90.70
1401;BME280;46518;48.842;8.926;2023-02-02T11:18:51;98015.69;;;5.92;89.52
1401;BME280;46518;48.842;8.926;2023-02-02T11:21:22;98018.06;;;5.87;90.26
1401;BME280;46518;48.842;8.926;2023-02-02T11:23:53;98015.88;;;5.91;89.30
1401;BME280;46518;48.842;8.926;2023-02-02T11:26:24;98018.88;;;5.88;90.16
1401;BME280;46518;48.842;8.926;2023-02-02T11:28:53;98008.50;;;5.94;89.76
1401;BME280;46518;48.842;8.926;2023-02-02T11:31:33;98028.53;;;5.87;90.58
1401;BME280;46518;48.842;8.926;2023-02-02T11:34:08;98024.06;;;5.81;90.46
1401;BME280;46518;48.842;8.926;2023-02-02T11:36:37;98004.34;;;5.78;88.49
1401;BME280;46518;48.842;8.926;2023-02-02T11:39:15;97999.91;;;5.79;88.54
1401;BME280;46518;48.842;8.926;2023-02-02T11:41:47;98012.06;;;5.93;89.84
1401;BME280;46518;48.842;8.926;2023-02-02T11:44:22;98009.66;;;5.92;88.56
1401;BME280;46518;48.842;8.926;2023-02-02T11:46:52;98000.38;;;5.82;88.68
1401;BME280;46518;48.842;8.926;2023-02-02T11:49:23;98005.38;;;5.84;89.16
1401;BME280;46518;48.842;8.926;2023-02-02T11:51:56;97999.56;;;5.82;90.42
1401;BME280;46518;48.842;8.926;2023-02-02T11:54:26;98009.97;;;5.75;89.81
1401;BME280;46518;48.842;8.926;2023-02-02T11:56:59;98014.16;;;5.70;92.00
1401;BME280;46518;48.842;8.926;2023-02-02T11:59:30;97988.09;;;5.48;91.41
1401;BME280;46518;48.842;8.926;2023-02-02T12:02:27;98005.66;;;5.61;93.36
1401;BME280;46518;48.842;8.926;2023-02-02T12:05:34;98010.34;;;5.44;92.86
1401;BME280;46518;48.842;8.926;2023-02-02T12:08:03;97995.34;;;5.53;93.95
1401;BME280;46518;48.842;8.926;2023-02-02T12:10:37;97988.19;;;5.33;94.04
1401;BME280;46518;48.842;8.926;2023-02-02T12:13:18;97998.16;;;5.23;96.27
1401;BME280;46518;48.842;8.926;2023-02-02T12:15:59;97983.97;;;5.32;95.43
1401;BME280;46518;48.842;8.926;2023-02-02T12:18:42;98007.63;;;5.24;96.26
1401;BME280;46518;48.842;8.926;2023-02-02T12:21:16;97967.78;;;5.15;97.07
1401;BME280;46518;48.842;8.926;2023-02-02T12:23:54;98006.59;;;5.25;97.54
1401;BME280;46518;48.842;8.926;2023-02-02T12:26:26;97990.38;;;5.30;98.89
1401;BME280;46518;48.842;8.926;2023-02-02T12:29:19;97993.94;;;5.22;98.90
1401;BME280;46518;48.842;8.926;2023-02-02T12:34:55;97981.22;;;5.12;99.56
1401;BME280;46518;48.842;8.926;2023-02-02T12:37:35;98003.38;;;5.23;99.60
1401;BME280;46518;48.842;8.926;2023-02-02T12:40:20;97995.16;;;5.26;100.00
1401;BME280;46518;48.842;8.926;2023-02-02T12:43:03;97996.78;;;5.27;100.00
1401;BME280;46518;48.842;8.926;2023-02-02T12:45:55;98002.56;;;5.23;100.00
1401;BME280;46518;48.842;8.926;2023-02-02T12:48:37;98005.00;;;5.24;100.00
1401;BME280;46518;48.842;8.926;2023-02-02T12:51:16;98012.00;;;5.24;100.00
1401;BME280;46518;48.842;8.926;2023-02-02T12:54:19;98011.19;;;5.23;100.00
1401;BME280;46518;48.842;8.926;2023-02-02T12:57:16;97999.50;;;5.19;100.00
1401;BME280;46518;48.842;8.926;2023-02-02T13:00:02;98002.72;;;5.14;100.00
1401;BME280;46518;48.842;8.926;2023-02-02T13:02:43;97999.28;;;5.14;100.00
1401;BME280;46518;48.842;8.926;2023-02-02T13:05:31;98003.13;;;5.18;99.84
1401;BME280;46518;48.842;8.926;2023-02-02T13:08:08;98007.00;;;5.22;100.00
1401;BME280;46518;48.842;8.926;2023-02-02T13:10:38;98010.06;;;5.32;100.00
1401;BME280;46518;48.842;8.926;2023-02-02T13:13:12;98008.28;;;5.33;100.00
1401;BME280;46518;48.842;8.926;2023-02-02T13:15:43;98005.03;;;5.31;100.00
1401;BME280;46518;48.842;8.926;2023-02-02T13:18:18;98011.75;;;5.40;99.92
1401;BME280;46518;48.842;8.926;2023-02-02T13:20:50;98004.88;;;5.39;100.00
1401;BME280;46518;48.842;8.926;2023-02-02T13:23:23;98002.91;;;5.41;98.98
1401;BME280;46518;48.842;8.926;2023-02-02T13:25:57;98015.78;;;5.43;99.60
1401;BME280;46518;48.842;8.926;2023-02-02T13:28:34;98027.81;;;5.44;98.00
1401;BME280;46518;48.842;8.926;2023-02-02T13:31:09;97989.28;;;5.46;97.54
1401;BME280;46518;48.842;8.926;2023-02-02T13:33:40;97976.31;;;5.31;97.80
1401;BME280;46518;48.842;8.926;2023-02-02T13:36:17;98006.66;;;5.32;97.61
1401;BME280;46518;48.842;8.926;2023-02-02T13:38:54;98008.22;;;5.54;96.24
1401;BME280;46518;48.842;8.926;2023-02-02T13:41:24;98011.06;;;5.59;96.89
1401;BME280;46518;48.842;8.926;2023-02-02T13:43:56;98020.91;;;5.57;96.50
1401;BME280;46518;48.842;8.926;2023-02-02T13:46:33;98026.81;;;5.73;96.04
1401;BME280;46518;48.842;8.926;2023-02-02T13:49:09;98004.28;;;5.65;95.83
1401;BME280;46518;48.842;8.926;2023-02-02T13:51:58;98038.13;;;5.80;95.25
1401;BME280;46518;48.842;8.926;2023-02-02T13:55:12;98035.91;;;5.77;95.03
1401;BME280;46518;48.842;8.926;2023-02-02T13:58:08;98037.50;;;5.78;93.62
1401;BME280;46518;48.842;8.926;2023-02-02T14:00:43;98033.66;;;5.74;93.62
1401;BME280;46518;48.842;8.926;2023-02-02T14:03:26;98046.59;;;5.82;93.15